Time;durP1;ratioP1;P1;durP2;ratioP2;P2;SDS_P1;SDS_P2;PMS_P1;PMS_P2;Temp;Humidity;BMP_temperature;BMP_pressure;BME280_temperature;BME280_humidity;BME280_pressure;Samples;Min_cycle;Max_cycle;Signal;HPM_P1;HPM_P2
2022/05/27 00:01:29;;;;;;;2.50;1.47;;;14.80;99.90;;;;;;4940974;29;20788;-86
2022/05/27 00:03:58;;;;;;;4.20;2.03;;;14.70;99.90;;;;;;4940906;29;20452;-85
2022/05/27 00:06:25;;;;;;;3.75;2.05;;;14.60;99.90;;;;;;4954777;28;20501;-86
2022/05/27 00:08:51;;;;;;;2.38;1.63;;;14.70;99.90;;;;;;4944564;29;20188;-86
2022/05/27 00:11:17;;;;;;;4.10;1.50;;;14.60;99.90;;;;;;4938919;29;20201;-87
2022/05/27 00:13:42;;;;;;;3.00;1.73;;;14.60;99.90;;;;;;4928232;29;21047;-85
2022/05/27 00:16:09;;;;;;;1.73;1.13;;;14.60;99.90;;;;;;4931632;29;20482;-86
2022/05/27 00:18:35;;;;;;;3.63;1.47;;;14.60;99.90;;;;;;4937377;29;20225;-86
2022/05/27 00:21:01;;;;;;;10.20;1.53;;;;;;;;;;4934051;29;20453;-85
2022/05/27 00:23:27;;;;;;;2.22;2.03;;;14.70;99.90;;;;;;4936532;29;20528;-85
2022/05/27 00:25:53;;;;;;;3.15;1.95;;;;;;;;;;4952216;29;20674;-85
2022/05/27 00:28:19;;;;;;;4.70;1.77;;;14.50;99.90;;;;;;4931227;29;20193;-85
2022/05/27 00:30:45;;;;;;;1.67;1.40;;;14.50;99.90;;;;;;4947231;29;20595;-86
2022/05/27 00:33:11;;;;;;;3.30;2.13;;;;;;;;;;4945396;29;20180;-84
2022/05/27 00:35:38;;;;;;;2.20;1.77;;;14.50;99.90;;;;;;4937365;29;20192;-86
2022/05/27 00:38:04;;;;;;;3.35;1.92;;;14.50;99.90;;;;;;4944736;29;20425;-86
2022/05/27 00:40:39;;;;;;;1.93;1.37;;;14.50;99.90;;;;;;4949154;29;20701;-88
2022/05/27 00:43:05;;;;;;;2.00;1.80;;;14.50;99.90;;;;;;4944440;29;20416;-86
2022/05/27 00:45:34;;;;;;;3.47;1.53;;;14.60;99.90;;;;;;4942013;29;20421;-87
2022/05/27 00:48:01;;;;;;;3.27;1.53;;;14.50;99.90;;;;;;4944112;29;20203;-88
2022/05/27 00:50:30;;;;;;;7.25;2.20;;;14.50;99.90;;;;;;4942816;29;20425;-88
2022/05/27 00:52:57;;;;;;;5.60;2.22;;;;;;;;;;4939302;29;20269;-86
2022/05/27 00:55:29;;;;;;;9.32;2.33;;;14.50;99.90;;;;;;4933851;29;20173;-86
2022/05/27 00:58:02;;;;;;;7.70;2.10;;;14.50;99.90;;;;;;4937896;29;20713;-87
2022/05/27 01:00:28;;;;;;;2.50;2.00;;;14.50;99.90;;;;;;4930563;29;20473;-86
2022/05/27 01:02:55;;;;;;;5.30;1.73;;;14.40;99.90;;;;;;4934082;29;20648;-85
2022/05/27 01:05:22;;;;;;;2.90;2.00;;;14.50;99.90;;;;;;4939493;29;20189;-85
2022/05/27 01:07:52;;;;;;;4.22;1.80;;;14.50;99.90;;;;;;4948279;29;20184;-86
2022/05/27 01:10:19;;;;;;;5.70;2.10;;;14.50;99.90;;;;;;4940435;29;20209;-86
2022/05/27 01:13:09;;;;;;;3.15;2.00;;;14.50;99.90;;;;;;4939337;29;20182;-87
2022/05/27 01:15:38;;;;;;;4.35;1.60;;;14.60;99.90;;;;;;4932365;29;20210;-87
2022/05/27 01:18:18;;;;;;;4.00;2.03;;;14.50;99.90;;;;;;4933329;29;21142;-84
2022/05/27 01:20:53;;;;;;;3.35;1.80;;;14.70;99.90;;;;;;4933690;29;20457;-85
2022/05/27 01:23:37;;;;;;;6.57;2.05;;;14.50;99.90;;;;;;4930304;29;20243;-88
2022/05/27 01:26:24;;;;;;;4.40;2.33;;;14.50;99.90;;;;;;4931011;29;20687;-86
2022/05/27 01:29:16;;;;;;;2.83;2.20;;;14.50;99.90;;;;;;4941266;29;20260;-87
2022/05/27 01:31:53;;;;;;;5.15;2.45;;;14.50;99.90;;;;;;4933651;29;20434;-88
2022/05/27 01:34:52;;;;;;;2.87;1.90;;;14.50;99.90;;;;;;4939335;29;20239;-87
2022/05/27 01:37:24;;;;;;;4.72;2.25;;;14.40;99.90;;;;;;4940626;29;20487;-88
2022/05/27 01:40:08;;;;;;;14.13;2.87;;;14.30;99.90;;;;;;4940043;29;20787;-87
2022/05/27 01:42:42;;;;;;;5.85;2.17;;;14.30;99.90;;;;;;4934021;29;20838;-88
2022/05/27 01:45:24;;;;;;;5.53;3.27;;;14.20;99.90;;;;;;4931280;29;20669;-88
2022/05/27 01:48:21;;;;;;;3.10;2.10;;;14.20;99.90;;;;;;4932037;29;20444;-87
2022/05/27 01:51:14;;;;;;;3.78;2.25;;;14.10;99.90;;;;;;4918295;29;20823;-87
2022/05/27 01:53:46;;;;;;;5.85;2.42;;;14.20;99.90;;;;;;4943799;29;20192;-88
2022/05/27 01:56:12;;;;;;;3.78;2.40;;;;;;;;;;4944651;29;20193;-87
2022/05/27 01:58:52;;;;;;;3.30;2.27;;;14.00;99.90;;;;;;4946365;29;20196;-88
2022/05/27 02:01:23;;;;;;;3.67;2.10;;;13.90;99.90;;;;;;4944952;29;20437;-87
2022/05/27 02:03:59;;;;;;;8.27;2.30;;;13.90;99.90;;;;;;4945663;29;20197;-87
2022/05/27 02:06:44;;;;;;;3.58;1.83;;;13.80;99.90;;;;;;4946594;29;20157;-87
2022/05/27 02:09:21;;;;;;;2.35;2.15;;;13.80;99.90;;;;;;4945499;29;20873;-87
2022/05/27 02:11:51;;;;;;;2.90;2.17;;;13.80;99.90;;;;;;4931745;29;20184;-87
2022/05/27 02:14:29;;;;;;;8.02;2.47;;;13.80;99.90;;;;;;4938851;29;20182;-89
2022/05/27 02:17:08;;;;;;;5.60;2.30;;;13.80;99.90;;;;;;4939833;29;20197;-87
2022/05/27 02:19:40;;;;;;;5.63;2.33;;;13.70;99.90;;;;;;4935282;29;20686;-87
2022/05/27 02:22:20;;;;;;;2.85;2.20;;;13.70;99.90;;;;;;4936705;29;20605;-87
2022/05/27 02:24:53;;;;;;;6.00;2.30;;;13.60;99.90;;;;;;4938527;29;20181;-88
2022/05/27 02:27:26;;;;;;;4.50;2.50;;;13.60;99.90;;;;;;4926483;29;20582;-86
2022/05/27 02:29:56;;;;;;;3.25;2.17;;;13.60;99.90;;;;;;4931926;29;20209;-87
2022/05/27 02:32:28;;;;;;;5.70;3.13;;;13.70;99.90;;;;;;4934344;29;20726;-86
2022/05/27 02:35:09;;;;;;;3.35;2.67;;;13.60;99.90;;;;;;4926481;29;20253;-86
2022/05/27 02:37:47;;;;;;;4.68;2.45;;;13.50;99.90;;;;;;4927887;29;20205;-87
2022/05/27 02:40:18;;;;;;;5.73;1.93;;;13.50;99.90;;;;;;4929076;29;20205;-88
2022/05/27 02:43:08;;;;;;;6.85;2.60;;;13.40;99.90;;;;;;4929565;29;20457;-86
2022/05/27 02:45:57;;;;;;;3.47;1.90;;;13.40;99.90;;;;;;4929855;29;20213;-88
2022/05/27 02:48:40;;;;;;;2.55;2.17;;;13.30;99.90;;;;;;4936425;29;20184;-87
2022/05/27 02:51:09;;;;;;;4.53;2.50;;;13.40;99.90;;;;;;4928149;29;20209;-82
2022/05/27 02:54:00;;;;;;;3.42;2.13;;;13.40;99.90;;;;;;4918208;29;20698;-83
2022/05/27 02:56:47;;;;;;;6.03;2.65;;;13.40;99.90;;;;;;4919549;29;20197;-83
2022/05/27 02:59:16;;;;;;;3.67;2.55;;;13.30;99.90;;;;;;4919640;29;20222;-83
2022/05/27 03:01:41;;;;;;;4.55;2.35;;;13.30;99.90;;;;;;4916842;29;20587;-83
2022/05/27 03:04:07;;;;;;;4.67;2.27;;;13.40;99.90;;;;;;4919718;29;20193;-84
2022/05/27 03:06:48;;;;;;;8.97;3.97;;;13.40;99.90;;;;;;4923182;29;20188;-83
2022/05/27 03:09:24;;;;;;;5.70;3.15;;;13.50;99.90;;;;;;4920665;29;20509;-84
2022/05/27 03:11:57;;;;;;;11.00;2.78;;;13.50;99.90;;;;;;4922115;29;20193;-84
2022/05/27 03:14:39;;;;;;;4.85;2.30;;;13.50;99.90;;;;;;4925934;29;20197;-85
2022/05/27 03:17:12;;;;;;;3.80;3.00;;;13.50;99.90;;;;;;4927216;29;20203;-85
2022/05/27 03:19:47;;;;;;;3.60;2.33;;;13.50;99.90;;;;;;4926810;29;20277;-85
2022/05/27 03:22:22;;;;;;;4.35;2.75;;;13.50;99.90;;;;;;4924774;29;20247;-86
2022/05/27 03:24:50;;;;;;;3.25;2.00;;;13.50;99.90;;;;;;4931397;29;20240;-85
2022/05/27 03:27:38;;;;;;;9.32;2.58;;;13.50;99.90;;;;;;4924545;29;20178;-85
2022/05/27 03:30:09;;;;;;;6.07;2.70;;;13.70;99.90;;;;;;4924629;29;20229;-84
2022/05/27 03:33:07;;;;;;;4.65;3.10;;;13.60;99.90;;;;;;4927930;29;20181;-82
2022/05/27 03:35:58;;;;;;;5.30;2.33;;;13.80;99.90;;;;;;4929853;29;20252;-84
2022/05/27 03:38:29;;;;;;;3.13;2.65;;;13.70;99.90;;;;;;4934417;29;20201;-84
2022/05/27 03:41:18;;;;;;;4.53;2.17;;;13.70;99.90;;;;;;4927164;29;20574;-84
2022/05/27 03:43:44;;;;;;;3.22;2.60;;;13.70;99.90;;;;;;4927297;29;20165;-84
2022/05/27 03:46:10;;;;;;;3.88;3.17;;;13.70;99.90;;;;;;4925840;29;20198;-85
2022/05/27 03:48:37;;;;;;;4.60;2.70;;;13.70;99.90;;;;;;4932568;29;20185;-85
2022/05/27 03:51:25;;;;;;;7.05;3.20;;;13.70;99.90;;;;;;4928734;29;20888;-85
2022/05/27 03:54:05;;;;;;;6.07;3.58;;;13.80;99.90;;;;;;4927461;29;20177;-84
2022/05/27 03:56:39;;;;;;;7.32;3.10;;;13.80;99.90;;;;;;4922638;29;20201;-85
2022/05/27 03:59:07;;;;;;;7.45;3.10;;;13.90;99.90;;;;;;4928953;29;20229;-84
2022/05/27 04:01:33;;;;;;;5.38;2.90;;;13.90;99.90;;;;;;4923420;29;20423;-84
2022/05/27 04:04:04;;;;;;;5.78;3.67;;;14.00;99.90;;;;;;4932042;29;20207;-84
2022/05/27 04:06:30;;;;;;;4.00;3.53;;;14.10;99.90;;;;;;4924886;29;20244;-84
2022/05/27 04:08:57;;;;;;;7.68;3.35;;;14.20;99.90;;;;;;4924404;29;20178;-86
2022/05/27 04:11:23;;;;;;;7.95;4.00;;;14.40;99.90;;;;;;4926965;29;20209;-84
2022/05/27 04:13:48;;;;;;;4.00;3.30;;;14.40;99.90;;;;;;4926355;29;20185;-84
2022/05/27 04:16:14;;;;;;;8.73;3.67;;;14.60;99.90;;;;;;4928762;29;20632;-84
2022/05/27 04:18:40;;;;;;;4.10;3.07;;;14.70;99.90;;;;;;4922228;29;20185;-84
2022/05/27 04:21:06;;;;;;;5.97;3.30;;;;;;;;;;4926206;29;21389;-84
2022/05/27 04:23:32;;;;;;;8.60;3.63;;;16.00;99.90;;;;;;4921686;29;20305;-85
2022/05/27 04:25:58;;;;;;;10.37;4.13;;;;;;;;;;4924760;29;20540;-83
2022/05/27 04:28:24;;;;;;;6.77;4.20;;;;;;;;;;4921099;29;20186;-83
2022/05/27 04:30:49;;;;;;;6.30;3.87;;;15.20;99.90;;;;;;4923162;29;20473;-84
2022/05/27 04:33:15;;;;;;;12.90;4.33;;;15.10;99.90;;;;;;4927350;29;20881;-83
2022/05/27 04:35:41;;;;;;;9.67;3.37;;;15.20;99.90;;;;;;4925944;29;20849;-83
2022/05/27 04:38:07;;;;;;;7.10;4.00;;;15.40;99.90;;;;;;4925851;29;20184;-83
2022/05/27 04:40:33;;;;;;;8.60;3.23;;;17.20;99.90;;;;;;4924063;29;20460;-84
2022/05/27 04:43:01;;;;;;;4.70;3.50;;;;;;;;;;4924335;29;20438;-84
2022/05/27 04:45:26;;;;;;;6.20;3.40;;;18.50;99.90;;;;;;4925204;29;20433;-85
2022/05/27 04:47:53;;;;;;;8.40;3.57;;;;;;;;;;4921869;29;20449;-82
2022/05/27 04:50:19;;;;;;;4.33;3.30;;;17.10;99.90;;;;;;4921183;29;21032;-82
2022/05/27 04:52:45;;;;;;;6.43;3.80;;;16.40;99.90;;;;;;4916702;29;20482;-83
2022/05/27 04:55:14;;;;;;;9.07;3.83;;;15.90;99.90;;;;;;4917551;29;20449;-83
2022/05/27 04:57:45;;;;;;;6.20;3.77;;;15.80;99.90;;;;;;4914824;29;20202;-82
2022/05/27 05:00:15;;;;;;;7.37;4.20;;;15.50;99.90;;;;;;4919039;29;20462;-85
2022/05/27 05:02:42;;;;;;;7.77;5.33;;;15.40;99.90;;;;;;4927990;29;20958;-86
2022/05/27 05:05:08;;;;;;;7.10;4.70;;;15.40;99.90;;;;;;4923244;29;20453;-86
2022/05/27 05:07:34;;;;;;;4.00;3.53;;;15.20;99.90;;;;;;4930569;29;20448;-85
2022/05/27 05:10:00;;;;;;;4.87;3.53;;;15.20;99.90;;;;;;4924872;29;20477;-85
2022/05/27 05:12:26;;;;;;;7.80;4.50;;;15.20;99.90;;;;;;4923493;29;20493;-84
2022/05/27 05:14:52;;;;;;;5.10;3.40;;;15.00;99.90;;;;;;4921642;29;20253;-82
2022/05/27 05:17:18;;;;;;;10.27;5.27;;;14.70;99.90;;;;;;4928241;29;20249;-82
2022/05/27 05:19:44;;;;;;;7.20;4.60;;;14.50;99.90;;;;;;4924179;29;20469;-83
2022/05/27 05:22:09;;;;;;;7.93;4.30;;;14.50;99.90;;;;;;4931527;29;20504;-81
2022/05/27 05:24:35;;;;;;;6.23;4.47;;;14.50;99.90;;;;;;4925106;29;20256;-81
2022/05/27 05:27:00;;;;;;;5.77;4.27;;;14.50;99.90;;;;;;4929239;29;20209;-81
2022/05/27 05:29:27;;;;;;;8.37;5.53;;;14.50;99.90;;;;;;4924315;28;20185;-82
2022/05/27 05:31:52;;;;;;;7.87;4.63;;;14.50;99.90;;;;;;4921638;29;20739;-81
2022/05/27 05:34:18;;;;;;;11.40;6.00;;;14.50;99.90;;;;;;4925269;29;20480;-83
2022/05/27 05:36:44;;;;;;;8.13;4.60;;;14.50;99.90;;;;;;4931974;29;20201;-84
2022/05/27 05:39:09;;;;;;;8.50;5.10;;;14.60;99.90;;;;;;4927958;29;20190;-84
2022/05/27 05:41:37;;;;;;;11.93;5.10;;;14.50;99.90;;;;;;4930199;29;20615;-84
2022/05/27 05:44:04;;;;;;;9.85;4.50;;;14.50;99.90;;;;;;4924445;29;20208;-82
2022/05/27 05:46:35;;;;;;;5.68;4.90;;;14.40;99.90;;;;;;4922677;29;20660;-81
2022/05/27 05:49:02;;;;;;;9.25;5.30;;;14.50;99.90;;;;;;4925819;29;20182;-82
2022/05/27 05:51:27;;;;;;;7.07;5.03;;;14.50;99.90;;;;;;4919385;29;20670;-82
2022/05/27 05:53:54;;;;;;;6.40;5.20;;;14.40;99.90;;;;;;4912908;29;20280;-82
2022/05/27 05:56:20;;;;;;;8.45;5.53;;;14.40;99.90;;;;;;4918128;29;20193;-83
2022/05/27 05:58:49;;;;;;;5.93;4.65;;;14.40;99.90;;;;;;4916719;29;20326;-82
2022/05/27 06:01:15;;;;;;;11.52;5.85;;;14.40;99.90;;;;;;4922794;29;20206;-82
2022/05/27 06:03:41;;;;;;;5.07;4.40;;;14.30;99.90;;;;;;4926064;29;20193;-82
2022/05/27 06:06:06;;;;;;;6.73;4.87;;;14.40;99.90;;;;;;4920868;29;20437;-82
2022/05/27 06:08:32;;;;;;;8.13;4.30;;;14.40;99.90;;;;;;4919997;29;20185;-82
2022/05/27 06:10:58;;;;;;;11.13;5.50;;;14.40;99.90;;;;;;4918536;29;20296;-82
2022/05/27 06:13:25;;;;;;;6.57;3.87;;;14.50;99.90;;;;;;4924932;29;20193;-84
2022/05/27 06:15:51;;;;;;;6.05;4.60;;;14.30;99.90;;;;;;4917539;29;20189;-82
2022/05/27 06:18:16;;;;;;;9.43;5.07;;;14.30;99.90;;;;;;4918816;29;20221;-83
2022/05/27 06:20:42;;;;;;;7.53;4.03;;;14.30;99.90;;;;;;4924538;29;20214;-82
2022/05/27 06:23:08;;;;;;;5.67;4.47;;;14.40;99.90;;;;;;4928722;29;20182;-83
2022/05/27 06:25:34;;;;;;;8.43;4.97;;;14.50;99.90;;;;;;4923219;29;20268;-84
2022/05/27 06:36:13;;;;;;;8.32;3.88;;;14.60;99.90;;;;;;4923497;29;20224;-82
2022/05/27 06:38:38;;;;;;;6.22;4.50;;;14.60;99.90;;;;;;4925425;29;20193;-81
2022/05/27 06:41:04;;;;;;;7.37;4.47;;;14.50;99.90;;;;;;4928773;29;20735;-83
2022/05/27 06:43:31;;;;;;;8.00;4.45;;;14.60;99.90;;;;;;4923965;29;20574;-82
2022/05/27 06:45:57;;;;;;;10.95;4.85;;;14.60;99.90;;;;;;4924253;29;20185;-82
2022/05/27 06:48:22;;;;;;;6.70;4.30;;;14.70;99.90;;;;;;4923620;29;20198;-82
2022/05/27 06:50:48;;;;;;;9.70;4.60;;;14.70;99.90;;;;;;4925530;29;20468;-83
2022/05/27 06:53:13;;;;;;;6.83;4.00;;;14.90;99.90;;;;;;4925562;29;20305;-82
2022/05/27 06:55:39;;;;;;;8.33;4.50;;;14.90;99.90;;;;;;4924364;29;20194;-82
2022/05/27 06:58:04;;;;;;;6.00;4.60;;;14.90;99.90;;;;;;4921937;29;20193;-82
2022/05/27 07:00:30;;;;;;;6.20;3.40;;;15.00;99.90;;;;;;4920924;29;20213;-82
2022/05/27 07:02:55;;;;;;;7.50;4.17;;;15.10;99.90;;;;;;4929302;29;20671;-82
2022/05/27 07:05:22;;;;;;;6.73;4.33;;;14.90;99.90;;;;;;4923474;29;20197;-82
2022/05/27 07:07:49;;;;;;;5.30;3.27;;;14.70;99.90;;;;;;4923906;29;20208;-82
2022/05/27 07:10:15;;;;;;;5.47;4.87;;;15.00;99.90;;;;;;4923981;29;20472;-83
2022/05/27 07:12:41;;;;;;;6.80;4.40;;;;;;;;;;4923913;29;20446;-82
2022/05/27 07:15:07;;;;;;;6.50;4.60;;;15.00;99.90;;;;;;4922943;29;20189;-83
2022/05/27 07:17:32;;;;;;;5.73;3.90;;;14.90;99.90;;;;;;4922399;29;20476;-83
2022/05/27 07:19:58;;;;;;;6.47;3.73;;;14.90;99.90;;;;;;4925292;29;21032;-82
2022/05/27 07:22:25;;;;;;;6.33;4.30;;;14.90;99.90;;;;;;4923986;29;20194;-82
2022/05/27 07:24:51;;;;;;;7.80;4.43;;;14.80;99.90;;;;;;4925668;29;20173;-83
2022/05/27 07:27:16;;;;;;;7.23;3.60;;;14.70;99.90;;;;;;4921850;29;20544;-83
2022/05/27 07:29:42;;;;;;;4.60;3.53;;;14.90;99.90;;;;;;4922941;29;21189;-84
2022/05/27 07:32:08;;;;;;;10.80;4.13;;;15.00;99.90;;;;;;4921839;29;20305;-82
2022/05/27 07:34:33;;;;;;;5.80;4.00;;;14.70;99.90;;;;;;4922046;29;20591;-83
2022/05/27 07:37:01;;;;;;;7.23;4.40;;;14.70;99.90;;;;;;4930167;29;21101;-82
2022/05/27 07:39:27;;;;;;;12.13;4.60;;;14.80;99.90;;;;;;4923187;29;20210;-83
2022/05/27 07:41:52;;;;;;;7.30;4.30;;;14.70;99.90;;;;;;4921191;29;20454;-82
2022/05/27 07:44:19;;;;;;;11.77;4.87;;;14.80;99.90;;;;;;4922235;29;21101;-83
2022/05/27 07:46:44;;;;;;;9.57;5.47;;;14.60;99.90;;;;;;4919336;29;20193;-84
2022/05/27 07:49:10;;;;;;;8.40;5.03;;;14.60;99.90;;;;;;4920076;29;20253;-83
2022/05/27 07:51:35;;;;;;;5.93;4.90;;;14.60;99.90;;;;;;4923573;29;20177;-84
2022/05/27 07:54:01;;;;;;;4.93;4.13;;;14.70;99.90;;;;;;4923284;29;20181;-82
2022/05/27 07:56:26;;;;;;;5.40;3.80;;;14.70;99.90;;;;;;4923031;29;20248;-83
2022/05/27 07:58:52;;;;;;;7.93;4.40;;;14.80;99.90;;;;;;4922135;29;20180;-83
2022/05/27 08:01:18;;;;;;;4.63;4.00;;;14.80;99.90;;;;;;4920892;29;20193;-83
2022/05/27 08:03:43;;;;;;;5.43;4.37;;;14.80;99.90;;;;;;4919689;29;20204;-82
2022/05/27 08:06:09;;;;;;;5.33;4.17;;;15.00;99.90;;;;;;4923534;29;20185;-83
2022/05/27 08:08:35;;;;;;;6.77;4.10;;;15.20;99.90;;;;;;4923113;29;21195;-83
2022/05/27 08:11:01;;;;;;;4.90;3.93;;;15.10;99.90;;;;;;4920230;29;20206;-82
2022/05/27 08:13:26;;;;;;;6.03;3.93;;;15.10;99.90;;;;;;4918162;29;20462;-82
2022/05/27 08:15:53;;;;;;;6.50;3.87;;;15.20;99.90;;;;;;4920499;29;20240;-83
2022/05/27 08:18:20;;;;;;;5.70;3.53;;;15.30;99.90;;;;;;4916912;29;20580;-83
2022/05/27 08:20:46;;;;;;;4.73;3.80;;;15.50;99.90;;;;;;4917431;29;20489;-83
2022/05/27 08:23:11;;;;;;;5.53;3.57;;;15.60;99.90;;;;;;4920539;29;20859;-83
2022/05/27 08:25:38;;;;;;;8.73;4.00;;;15.50;99.90;;;;;;4924596;29;20991;-82
2022/05/27 08:28:05;;;;;;;9.43;4.10;;;15.70;99.90;;;;;;4918477;29;20845;-82
2022/05/27 08:30:34;;;;;;;6.63;3.70;;;15.60;99.90;;;;;;4933857;28;20471;-81
2022/05/27 08:33:00;;;;;;;4.73;3.33;;;15.70;99.90;;;;;;4921489;29;20418;-82
2022/05/27 08:38:28;;;;;;;9.67;4.67;;;16.10;99.90;;;;;;4921304;29;20863;-82
2022/05/27 08:41:27;;;;;;;6.77;3.60;;;16.00;99.90;;;;;;4925931;29;20452;-84
2022/05/27 08:44:24;;;;;;;6.50;3.47;;;16.00;99.90;;;;;;4921483;29;20436;-80
2022/05/27 08:47:05;;;;;;;8.13;4.67;;;15.90;99.90;;;;;;4923312;29;20931;-81
2022/05/27 08:49:38;;;;;;;5.70;4.13;;;15.90;99.90;;;;;;4923358;29;20592;-82
2022/05/27 08:52:18;;;;;;;7.10;4.30;;;15.60;99.90;;;;;;4920357;29;20471;-82
2022/05/27 08:54:57;;;;;;;6.60;4.47;;;15.70;99.90;;;;;;4926425;29;21551;-82
2022/05/27 09:00:17;;;;;;;6.53;3.90;;;15.30;99.90;;;;;;4929811;29;20504;-82
2022/05/27 09:03:04;;;;;;;5.47;4.50;;;15.20;99.90;;;;;;4928038;29;20441;-81
2022/05/27 09:05:43;;;;;;;5.75;4.07;;;15.40;99.90;;;;;;4933788;29;20483;-82
2022/05/27 09:08:22;;;;;;;5.97;4.23;;;15.80;99.90;;;;;;4925998;29;20196;-81
2022/05/27 09:11:07;;;;;;;5.37;3.87;;;15.80;99.90;;;;;;4927876;29;20452;-81
2022/05/27 09:13:52;;;;;;;6.37;4.10;;;15.80;99.90;;;;;;4930017;29;20548;-81
2022/05/27 09:16:23;;;;;;;6.03;3.60;;;15.60;99.90;;;;;;4928066;29;20468;-81
2022/05/27 09:19:24;;;;;;;8.00;3.70;;;15.70;99.90;;;;;;4929030;29;20517;-82
2022/05/27 09:22:02;;;;;;;4.77;3.27;;;15.70;99.90;;;;;;4911246;29;21070;-82
2022/05/27 09:24:56;;;;;;;4.93;4.40;;;16.00;99.90;;;;;;4935640;29;20906;-82
2022/05/27 09:27:47;;;;;;;5.40;3.27;;;16.90;99.90;;;;;;4928756;29;20512;-82
2022/05/27 09:30:17;;;;;;;6.23;3.70;;;17.70;99.90;;;;;;4927400;29;21251;-81
2022/05/27 09:32:55;;;;;;;6.10;3.40;;;17.70;99.90;;;;;;4926245;29;20795;-81
2022/05/27 09:35:26;;;;;;;4.27;2.73;;;17.70;99.90;;;;;;4926438;29;20449;-82
2022/05/27 09:37:54;;;;;;;7.83;3.27;;;18.10;99.90;;;;;;4927588;29;20466;-81
2022/05/27 09:40:38;;;;;;;6.77;3.40;;;17.80;99.90;;;;;;4927821;29;20456;-81
2022/05/27 09:43:42;;;;;;;7.03;2.20;;;17.80;99.90;;;;;;4933311;29;20441;-82
2022/05/27 09:46:38;;;;;;;2.57;2.37;;;17.70;99.90;;;;;;4876443;29;20447;-81
2022/05/27 09:49:05;;;;;;;2.70;2.13;;;17.50;99.90;;;;;;4924290;29;20524;-80
2022/05/27 09:51:31;;;;;;;3.80;2.60;;;18.10;99.90;;;;;;4926305;29;20438;-81
2022/05/27 09:54:25;;;;;;;1.80;1.70;;;18.60;99.90;;;;;;4926810;29;20524;-82
2022/05/27 09:57:02;;;;;;;4.70;1.90;;;19.20;99.90;;;;;;4927509;29;20462;-81
2022/05/27 09:59:43;;;;;;;2.40;2.20;;;19.70;99.90;;;;;;4926087;29;20434;-81
2022/05/27 10:02:15;;;;;;;2.80;2.00;;;20.90;99.90;;;;;;4930032;29;20433;-81
2022/05/27 10:04:52;;;;;;;3.73;1.90;;;20.90;99.90;;;;;;4927539;29;20454;-82
2022/05/27 10:07:34;;;;;;;2.07;1.80;;;20.70;99.90;;;;;;4924889;29;20445;-81
2022/05/27 10:10:26;;;;;;;2.33;1.80;;;20.80;99.90;;;;;;4931922;28;20607;-81
2022/05/27 10:12:52;;;;;;;4.00;2.00;;;;;;;;;;4928624;29;20875;-81
2022/05/27 10:15:35;;;;;;;2.90;1.97;;;20.30;99.90;;;;;;4924469;29;20981;-81
2022/05/27 10:18:26;;;;;;;2.20;2.00;;;20.90;99.90;;;;;;4926568;29;20481;-81
2022/05/27 10:21:02;;;;;;;1.83;1.53;;;21.30;99.90;;;;;;4926639;29;20963;-82
2022/05/27 10:23:35;;;;;;;3.67;1.53;;;21.90;99.90;;;;;;4924861;29;20453;-81
2022/05/27 10:26:21;;;;;;;3.60;2.20;;;22.00;99.90;;;;;;4923396;29;20430;-81
2022/05/27 10:29:15;;;;;;;2.43;1.90;;;21.30;99.90;;;;;;4928781;29;20441;-81
2022/05/27 10:31:53;;;;;;;3.57;2.27;;;21.00;99.90;;;;;;4930059;29;20506;-81
2022/05/27 10:34:39;;;;;;;3.57;2.37;;;21.00;99.90;;;;;;4928519;29;20437;-81
2022/05/27 10:37:28;;;;;;;6.30;2.47;;;21.80;99.90;;;;;;4925615;29;20829;-81
2022/05/27 10:40:33;;;;;;;2.90;2.43;;;22.60;99.90;;;;;;4927057;29;21405;-82
2022/05/27 10:43:26;;;;;;;6.00;3.33;;;22.20;99.90;;;;;;4922356;29;20432;-82
2022/05/27 10:45:56;;;;;;;4.37;2.00;;;22.20;99.90;;;;;;4923992;29;21280;-81
2022/05/27 10:48:44;;;;;;;2.93;2.73;;;22.10;99.90;;;;;;4925265;29;20448;-82
2022/05/27 10:51:48;;;;;;;3.90;2.20;;;21.50;99.90;;;;;;4923648;29;20454;-83
2022/05/27 10:54:14;;;;;;;5.73;2.93;;;;;;;;;;4927637;29;20452;-82
2022/05/27 11:03:28;;;;;;;3.33;2.53;;;21.10;99.90;;;;;;4922211;29;20981;-84
2022/05/27 11:06:15;;;;;;;2.50;1.77;;;20.50;99.90;;;;;;4928916;29;20806;-82
2022/05/27 11:09:00;;;;;;;2.67;2.10;;;20.20;99.90;;;;;;4927377;29;20441;-83
2022/05/27 11:12:00;;;;;;;4.10;2.00;;;20.20;99.90;;;;;;4921108;29;21068;-82
2022/05/27 11:17:29;;;;;;;2.70;1.93;;;;;;;;;;4920282;29;20559;-82
2022/05/27 11:20:09;;;;;;;2.10;1.83;;;20.40;99.90;;;;;;4920991;29;20457;-83
2022/05/27 11:22:59;;;;;;;6.73;2.17;;;20.80;99.90;;;;;;4922295;29;20428;-84
2022/05/27 11:25:24;;;;;;;3.20;2.23;;;;;;;;;;4916672;29;21175;-84
2022/05/27 11:28:20;;;;;;;2.40;1.70;;;20.80;99.90;;;;;;4920340;29;20434;-85
2022/05/27 11:30:59;;;;;;;4.07;2.27;;;20.90;99.90;;;;;;4922142;29;20561;-85
2022/05/27 11:33:39;;;;;;;1.90;1.67;;;20.80;99.90;;;;;;4936187;28;20461;-83
2022/05/27 11:36:41;;;;;;;2.80;1.90;;;20.70;99.90;;;;;;4921555;29;20450;-83
2022/05/27 11:39:25;;;;;;;2.23;1.80;;;20.70;99.90;;;;;;4919107;29;20473;-82
2022/05/27 11:42:16;;;;;;;2.77;1.83;;;20.70;99.90;;;;;;4926877;29;20458;-85
2022/05/27 11:44:49;;;;;;;3.37;1.70;;;20.70;99.90;;;;;;4927631;29;20466;-85
2022/05/27 11:47:37;;;;;;;3.97;2.90;;;20.50;99.90;;;;;;4923086;29;20448;-83
2022/05/27 11:50:12;;;;;;;7.73;2.00;;;20.20;99.90;;;;;;4926197;29;20460;-82
2022/05/27 11:52:49;;;;;;;2.83;1.70;;;20.20;99.90;;;;;;4918580;29;20444;-85
2022/05/27 11:55:53;;;;;;;3.40;1.97;;;20.30;99.90;;;;;;4918543;29;20436;-83
2022/05/27 11:58:24;;;;;;;2.57;1.83;;;20.90;99.90;;;;;;4921037;29;20436;-83
2022/05/27 12:01:26;;;;;;;2.70;1.87;;;20.20;99.90;;;;;;4926634;29;20549;-83
2022/05/27 12:04:00;;;;;;;1.97;1.83;;;19.80;99.90;;;;;;4919663;29;20954;-82
2022/05/27 12:06:33;;;;;;;2.53;2.33;;;20.20;99.90;;;;;;4918315;29;20582;-85
2022/05/27 12:09:09;;;;;;;1.63;1.40;;;20.90;99.90;;;;;;4920248;29;20504;-82
2022/05/27 12:11:48;;;;;;;1.77;1.67;;;20.80;99.90;;;;;;4921249;29;20571;-83
2022/05/27 12:14:43;;;;;;;1.50;1.40;;;20.00;99.90;;;;;;4915366;29;20435;-83
2022/05/27 12:17:18;;;;;;;2.80;1.97;;;20.00;99.90;;;;;;4918492;29;20507;-83
2022/05/27 12:19:57;;;;;;;1.97;1.70;;;20.20;99.90;;;;;;4921281;29;20504;-84
2022/05/27 12:22:27;;;;;;;5.30;1.60;;;19.90;99.90;;;;;;4927683;29;20433;-84
2022/05/27 12:25:08;;;;;;;2.03;1.73;;;20.20;99.90;;;;;;4919764;29;20571;-83
2022/05/27 12:27:35;;;;;;;5.33;1.87;;;20.10;99.90;;;;;;4918072;29;20864;-84
2022/05/27 12:30:05;;;;;;;3.50;1.87;;;20.50;99.90;;;;;;4927669;29;21314;-83
2022/05/27 12:32:31;;;;;;;1.50;1.40;;;20.90;99.90;;;;;;4919644;29;20440;-84
2022/05/27 12:35:21;;;;;;;2.50;1.80;;;20.30;99.90;;;;;;4922173;29;20451;-81
2022/05/27 12:37:58;;;;;;;3.80;2.20;;;19.00;99.90;;;;;;4917851;29;20458;-82
2022/05/27 12:40:38;;;;;;;2.00;1.90;;;19.10;99.90;;;;;;4919985;29;20460;-82
2022/05/27 12:43:15;;;;;;;2.60;1.80;;;19.10;99.90;;;;;;4925833;29;20962;-83
2022/05/27 12:45:54;;;;;;;3.37;2.10;;;19.20;99.90;;;;;;4928123;29;20532;-83
2022/05/27 12:48:34;;;;;;;2.30;1.83;;;19.30;99.90;;;;;;4927116;29;21076;-84
2022/05/27 12:51:07;;;;;;;2.67;1.63;;;19.80;99.90;;;;;;4926115;29;20461;-83
2022/05/27 12:53:50;;;;;;;4.10;2.20;;;19.80;99.90;;;;;;4920347;29;20437;-83
2022/05/27 13:02:14;;;;;;;3.77;2.00;;;19.50;99.90;;;;;;4918879;29;20518;-84
2022/05/27 13:04:53;;;;;;;4.03;2.13;;;19.40;99.90;;;;;;4919864;29;20469;-83
2022/05/27 13:07:39;;;;;;;6.50;2.10;;;18.70;99.90;;;;;;4919861;29;20984;-84
2022/05/27 13:10:16;;;;;;;5.47;2.00;;;18.80;99.90;;;;;;4916754;29;20532;-85
2022/05/27 13:12:42;;;;;;;4.40;2.43;;;;;;;;;;4917335;29;20456;-84
2022/05/27 13:15:13;;;;;;;3.33;1.93;;;18.70;99.90;;;;;;4926417;29;20951;-82
2022/05/27 13:17:44;;;;;;;2.57;1.97;;;18.30;99.90;;;;;;4920049;29;20515;-84
2022/05/27 13:20:16;;;;;;;4.50;2.33;;;18.50;99.90;;;;;;4920257;29;20513;-84
2022/05/27 13:23:09;;;;;;;2.80;2.03;;;18.60;99.90;;;;;;4919103;29;20445;-85
2022/05/27 13:25:39;;;;;;;5.50;2.23;;;18.80;99.90;;;;;;4920640;29;20448;-85
2022/05/27 13:28:11;;;;;;;4.17;1.97;;;18.70;99.90;;;;;;4916838;29;20985;-84
2022/05/27 13:30:49;;;;;;;3.20;2.13;;;18.70;99.90;;;;;;4924151;29;21013;-84
2022/05/27 13:33:23;;;;;;;1.70;1.60;;;18.80;99.90;;;;;;4920191;29;20545;-85
2022/05/27 13:35:49;;;;;;;1.63;1.30;;;18.70;99.90;;;;;;4926446;29;20479;-83
2022/05/27 13:38:23;;;;;;;2.83;1.53;;;18.80;99.90;;;;;;4919512;29;20546;-84
2022/05/27 13:40:48;;;;;;;1.90;1.43;;;;;;;;;;4919415;29;20457;-84
2022/05/27 13:43:20;;;;;;;2.13;1.87;;;18.10;99.90;;;;;;4921366;29;20437;-85
2022/05/27 13:45:51;;;;;;;5.03;1.83;;;17.90;99.90;;;;;;4927755;29;20446;-84
2022/05/27 13:48:31;;;;;;;2.93;1.77;;;18.00;99.90;;;;;;4928585;29;21176;-82
2022/05/27 13:51:11;;;;;;;2.10;1.33;;;18.10;99.90;;;;;;4927856;29;21280;-85
2022/05/27 13:53:37;;;;;;;1.80;1.50;;;17.90;99.90;;;;;;4923580;29;20878;-84
2022/05/27 13:56:21;;;;;;;2.30;1.77;;;17.90;99.90;;;;;;4929376;29;20833;-85